Time;durP1;ratioP1;P1;durP2;ratioP2;P2;SDS_P1;SDS_P2;PMS_P1;PMS_P2;Temp;Humidity;BMP_temperature;BMP_pressure;BME280_temperature;BME280_humidity;BME280_pressure;Samples;Min_cycle;Max_cycle;Signal;HPM_P1;HPM_P2
2022/11/13 00:00:00;;;;;;;16.73;11.15;;;;;;;8.03;100.00;102724.13;5015797;28;20057;-66
2022/11/13 00:02:27;;;;;;;17.33;11.27;;;;;;;8.02;100.00;102719.84;5012557;28;20111;-66
2022/11/13 00:04:53;;;;;;;15.45;11.05;;;;;;;8.03;100.00;102717.13;5021489;28;20763;-66
2022/11/13 00:07:19;;;;;;;15.60;11.63;;;;;;;8.04;100.00;102726.66;5018630;28;20560;-66
2022/11/13 00:09:46;;;;;;;15.77;11.82;;;;;;;8.05;100.00;102724.88;5006598;28;20465;-66
2022/11/13 00:12:12;;;;;;;17.58;11.77;;;;;;;8.05;100.00;102717.06;5014432;28;20061;-66
2022/11/13 00:14:38;;;;;;;15.18;11.55;;;;;;;8.04;100.00;102721.44;5023131;28;20123;-66
2022/11/13 00:17:05;;;;;;;16.10;11.60;;;;;;;8.00;100.00;102711.25;5029521;28;20469;-66
2022/11/13 00:19:31;;;;;;;18.73;12.18;;;;;;;8.00;100.00;102713.88;5030396;28;20052;-66
2022/11/13 00:21:59;;;;;;;17.13;12.20;;;;;;;8.03;100.00;102717.13;5014976;28;20468;-65
2022/11/13 00:24:25;;;;;;;16.90;11.82;;;;;;;8.06;100.00;102710.91;5014975;28;20536;-66
2022/11/13 00:26:51;;;;;;;15.50;12.10;;;;;;;8.08;100.00;102706.44;5007854;28;20049;-66
2022/11/13 00:29:18;;;;;;;14.30;11.23;;;;;;;8.10;100.00;102709.81;5027661;28;20099;-66
2022/11/13 00:31:44;;;;;;;17.17;11.73;;;;;;;8.15;100.00;102704.31;5023419;28;20053;-66
2022/11/13 00:34:10;;;;;;;15.73;12.10;;;;;;;8.17;100.00;102713.75;5015135;28;20085;-65
2022/11/13 00:36:57;;;;;;;16.52;12.10;;;;;;;8.18;100.00;102699.78;5022351;28;20490;-66
2022/11/13 00:39:23;;;;;;;16.90;11.40;;;;;;;8.19;100.00;102692.75;5006625;28;20049;-66
2022/11/13 00:41:49;;;;;;;13.60;11.18;;;;;;;8.19;100.00;102693.59;5018454;28;20461;-65
2022/11/13 00:44:17;;;;;;;15.60;11.82;;;;;;;8.23;100.00;102691.66;5010078;28;20453;-65
2022/11/13 00:46:43;;;;;;;18.05;12.88;;;;;;;8.20;100.00;102689.25;5007460;28;20464;-66
2022/11/13 00:49:09;;;;;;;18.90;11.60;;;;;;;8.19;100.00;102685.75;5028591;28;20477;-66
2022/11/13 00:51:36;;;;;;;17.20;11.48;;;;;;;8.19;100.00;102687.53;5000230;28;20478;-66
2022/11/13 00:54:02;;;;;;;16.08;11.10;;;;;;;8.19;100.00;102677.91;5015947;28;20130;-65
2022/11/13 00:56:28;;;;;;;16.38;11.57;;;;;;;8.18;100.00;102672.78;5027199;28;20076;-66
2022/11/13 00:58:55;;;;;;;14.82;11.25;;;;;;;8.19;100.00;102679.69;5031489;28;20044;-66
2022/11/13 01:01:21;;;;;;;16.02;12.00;;;;;;;8.19;100.00;102675.31;5014446;28;20490;-65
2022/11/13 01:03:48;;;;;;;17.80;11.10;;;;;;;8.18;100.00;102671.00;5018255;28;20066;-65
2022/11/13 01:06:18;;;;;;;14.85;11.55;;;;;;;8.20;100.00;102678.78;5022380;28;20057;-65
2022/11/13 01:08:44;;;;;;;16.42;11.82;;;;;;;8.14;100.00;102671.28;5007084;28;20053;-65
2022/11/13 01:11:14;;;;;;;15.30;11.45;;;;;;;8.17;100.00;102669.31;5016588;28;20057;-64
2022/11/13 01:13:43;;;;;;;16.10;11.02;;;;;;;8.14;100.00;102672.13;5014478;28;20107;-65
2022/11/13 01:16:11;;;;;;;14.20;11.13;;;;;;;8.11;100.00;102672.28;5024654;28;20068;-65
2022/11/13 01:18:38;;;;;;;14.80;11.38;;;;;;;8.06;100.00;102675.16;5007518;28;20119;-65
2022/11/13 01:21:07;;;;;;;18.60;11.85;;;;;;;8.06;100.00;102671.72;5012415;28;20103;-66
2022/11/13 01:23:34;;;;;;;14.43;10.82;;;;;;;8.05;100.00;102673.44;5024039;28;20053;-67
2022/11/13 01:26:06;;;;;;;14.75;11.43;;;;;;;8.06;100.00;102666.47;5017748;28;20096;-65
2022/11/13 01:28:33;;;;;;;14.55;11.27;;;;;;;7.99;100.00;102670.34;5023833;28;20111;-67
2022/11/13 01:30:59;;;;;;;15.82;11.38;;;;;;;7.95;100.00;102674.06;5015651;28;20303;-66
2022/11/13 01:33:26;;;;;;;13.25;9.68;;;;;;;7.91;100.00;102662.94;5024258;28;20053;-66
2022/11/13 01:35:58;;;;;;;13.48;9.57;;;;;;;7.91;100.00;102661.16;5009008;28;20058;-66
2022/11/13 01:38:25;;;;;;;17.30;10.82;;;;;;;7.84;100.00;102649.38;5024601;28;20050;-66
2022/11/13 01:40:52;;;;;;;14.23;10.98;;;;;;;7.81;100.00;102648.69;5027232;28;20049;-66
2022/11/13 01:43:22;;;;;;;15.23;10.88;;;;;;;7.81;100.00;102649.50;5019425;28;20465;-65
2022/11/13 01:45:57;;;;;;;15.60;12.05;;;;;;;7.76;100.00;102645.47;5028764;28;20069;-65
2022/11/13 01:48:41;;;;;;;17.30;11.43;;;;;;;7.73;100.00;102643.88;5012754;28;20053;-65
2022/11/13 01:51:11;;;;;;;15.80;11.82;;;;;;;7.69;100.00;102637.97;5022007;28;20120;-66
2022/11/13 01:53:41;;;;;;;17.77;10.52;;;;;;;7.70;100.00;102637.06;5014741;28;20057;-65
2022/11/13 01:56:07;;;;;;;15.32;11.13;;;;;;;7.69;100.00;102637.97;5018706;28;20487;-65
2022/11/13 01:58:34;;;;;;;15.27;11.25;;;;;;;7.73;100.00;102633.41;5023575;28;20111;-66
2022/11/13 02:01:01;;;;;;;17.27;11.43;;;;;;;7.75;100.00;102634.19;5016740;28;20088;-66
2022/11/13 02:03:28;;;;;;;14.23;12.10;;;;;;;7.77;100.00;102629.72;5012792;28;20560;-66
2022/11/13 02:05:55;;;;;;;18.45;11.45;;;;;;;7.82;100.00;102627.72;5014723;28;20505;-66
2022/11/13 02:08:22;;;;;;;15.05;11.02;;;;;;;7.83;100.00;102628.53;5027462;28;20057;-66
2022/11/13 02:10:48;;;;;;;16.40;11.68;;;;;;;7.82;100.00;102619.88;5023694;28;20099;-64
2022/11/13 02:13:15;;;;;;;14.40;11.43;;;;;;;7.84;100.00;102617.16;5015558;28;20053;-65
2022/11/13 02:15:44;;;;;;;17.23;11.95;;;;;;;7.87;100.00;102615.22;5019093;28;20784;-65
2022/11/13 02:18:12;;;;;;;14.82;11.65;;;;;;;7.91;100.00;102614.13;5009151;28;20192;-65
2022/11/13 02:20:49;;;;;;;16.88;12.13;;;;;;;7.95;100.00;102619.19;5017193;28;20147;-67
2022/11/13 02:23:23;;;;;;;15.35;11.50;;;;;;;7.95;100.00;102620.00;5016711;28;20084;-65
2022/11/13 02:25:51;;;;;;;16.08;10.77;;;;;;;7.95;100.00;102619.19;5016229;28;20099;-65
2022/11/13 02:28:18;;;;;;;15.57;11.45;;;;;;;7.92;100.00;102618.44;5019428;28;20056;-65
2022/11/13 02:30:45;;;;;;;14.90;10.75;;;;;;;7.91;100.00;102614.13;5016936;28;20108;-65
2022/11/13 02:33:24;;;;;;;17.13;11.35;;;;;;;7.97;100.00;102609.47;5020217;28;20057;-65
2022/11/13 02:35:50;;;;;;;16.35;10.98;;;;;;;7.93;100.00;102606.19;5007427;28;20103;-66
2022/11/13 02:38:17;;;;;;;14.95;10.82;;;;;;;7.91;100.00;102614.13;5028781;28;20053;-66
2022/11/13 02:40:43;;;;;;;14.98;10.55;;;;;;;7.88;100.00;102606.47;5022199;28;20050;-65
2022/11/13 02:43:10;;;;;;;14.65;10.82;;;;;;;7.88;100.00;102603.00;5033022;28;20104;-65
2022/11/13 02:45:37;;;;;;;16.27;11.25;;;;;;;7.86;100.00;102605.72;5019144;28;20111;-66
2022/11/13 02:48:05;;;;;;;20.88;11.52;;;;;;;7.90;100.00;102611.59;5012038;28;20062;-66
2022/11/13 02:50:33;;;;;;;14.93;11.60;;;;;;;7.87;100.00;102601.31;5021979;28;20085;-65
2022/11/13 02:52:59;;;;;;;13.50;10.85;;;;;;;7.86;100.00;102603.09;5010896;28;20057;-66
2022/11/13 02:55:26;;;;;;;13.57;10.98;;;;;;;7.85;100.00;102598.78;5025334;28;20121;-66
2022/11/13 02:57:52;;;;;;;16.55;10.98;;;;;;;7.82;100.00;102590.25;5013284;28;20096;-65
2022/11/13 03:00:19;;;;;;;14.35;10.95;;;;;;;7.81;100.00;102589.44;5029376;28;20114;-66
2022/11/13 03:02:45;;;;;;;16.10;10.65;;;;;;;7.80;100.00;102586.91;5033623;28;20096;-66
2022/11/13 03:05:12;;;;;;;15.68;11.45;;;;;;;7.79;100.00;102587.84;5027954;28;20442;-65
2022/11/13 03:07:40;;;;;;;14.48;11.30;;;;;;;7.80;100.00;102589.50;5018587;28;20050;-65
2022/11/13 03:10:08;;;;;;;14.20;10.98;;;;;;;7.80;100.00;102594.72;5027853;28;20057;-65
2022/11/13 03:12:35;;;;;;;19.30;11.32;;;;;;;7.76;100.00;102588.00;5020561;28;20062;-65
2022/11/13 03:15:02;;;;;;;13.95;11.60;;;;;;;7.77;100.00;102592.31;5018366;28;20049;-65
2022/11/13 03:17:31;;;;;;;16.30;11.75;;;;;;;7.78;100.00;102581.78;5024726;28;20060;-66
2022/11/13 03:19:58;;;;;;;15.75;11.05;;;;;;;7.75;100.00;102581.94;5023343;28;20473;-66
2022/11/13 03:22:25;;;;;;;15.40;11.73;;;;;;;7.75;100.00;102587.16;5015083;28;20053;-67
2022/11/13 03:24:51;;;;;;;14.45;11.32;;;;;;;7.75;100.00;102574.09;5021385;28;20053;-66
2022/11/13 03:27:18;;;;;;;14.45;11.48;;;;;;;7.75;100.00;102578.50;5015298;28;20057;-67
2022/11/13 03:29:45;;;;;;;15.73;11.75;;;;;;;7.75;100.00;102581.94;5013559;28;20080;-67
2022/11/13 03:32:11;;;;;;;15.45;11.85;;;;;;;7.75;100.00;102579.31;5021923;28;20042;-66
2022/11/13 03:34:38;;;;;;;17.45;11.35;;;;;;;7.76;100.00;102574.94;5017898;28;20077;-67
2022/11/13 03:37:04;;;;;;;16.85;11.90;;;;;;;7.78;100.00;102566.09;5033045;28;20052;-67
2022/11/13 03:39:30;;;;;;;12.93;10.88;;;;;;;7.77;100.00;102571.41;5019387;28;20103;-67
2022/11/13 03:41:57;;;;;;;14.77;11.82;;;;;;;7.77;100.00;102566.19;5021178;28;20057;-67
2022/11/13 03:44:23;;;;;;;15.93;12.00;;;;;;;7.71;100.00;102562.97;5032880;28;20053;-66
2022/11/13 03:46:49;;;;;;;16.95;12.10;;;;;;;7.72;100.00;102555.97;5023448;28;20049;-66
2022/11/13 03:49:16;;;;;;;19.15;12.48;;;;;;;7.71;100.00;102554.31;5024372;28;20599;-66
2022/11/13 03:51:42;;;;;;;14.82;10.57;;;;;;;7.72;100.00;102563.81;5015157;28;20042;-66
2022/11/13 03:54:08;;;;;;;15.00;11.85;;;;;;;7.70;100.00;102556.06;5020234;28;20096;-66
2022/11/13 03:56:35;;;;;;;16.35;11.25;;;;;;;7.70;100.00;102547.38;5011842;28;20049;-66
2022/11/13 03:59:01;;;;;;;19.10;11.23;;;;;;;7.66;100.00;102545.88;5016988;28;20049;-66
2022/11/13 04:01:28;;;;;;;13.80;11.35;;;;;;;7.62;100.00;102541.75;5024672;28;20083;-66
2022/11/13 04:03:54;;;;;;;16.65;11.38;;;;;;;7.60;100.00;102539.22;5015754;28;20053;-66
2022/11/13 04:06:20;;;;;;;14.00;11.63;;;;;;;7.57;100.00;102541.19;5019437;28;20046;-66
2022/11/13 04:08:47;;;;;;;14.50;11.10;;;;;;;7.55;100.00;102538.63;5011258;28;20054;-65
2022/11/13 04:11:13;;;;;;;15.82;11.15;;;;;;;7.48;100.00;102537.28;5020722;28;20468;-67
2022/11/13 04:13:39;;;;;;;14.38;11.63;;;;;;;7.47;100.00;102535.63;5024904;28;20424;-66
2022/11/13 04:16:06;;;;;;;14.00;10.35;;;;;;;7.46;100.00;102533.91;5023207;28;20053;-66
2022/11/13 04:18:32;;;;;;;16.38;11.38;;;;;;;7.43;100.00;102534.94;5018475;28;20083;-66
2022/11/13 04:21:03;;;;;;;14.05;11.65;;;;;;;7.43;100.00;102523.63;5017278;28;20061;-67
2022/11/13 04:23:30;;;;;;;16.55;12.15;;;;;;;7.35;100.00;102518.84;5017135;28;20045;-66
2022/11/13 04:25:56;;;;;;;14.70;10.95;;;;;;;7.35;100.00;102513.63;5015602;28;21665;-66
2022/11/13 04:28:23;;;;;;;15.05;11.43;;;;;;;7.28;100.00;102509.66;5033679;28;20261;-66
2022/11/13 04:30:53;;;;;;;15.25;11.07;;;;;;;7.30;100.00;102507.81;5028982;28;20057;-66
2022/11/13 04:33:19;;;;;;;16.02;11.45;;;;;;;7.27;100.00;102505.34;5018803;28;20057;-66
2022/11/13 04:35:47;;;;;;;16.00;11.75;;;;;;;7.21;100.00;102501.31;5023234;28;20099;-65
2022/11/13 04:38:13;;;;;;;16.70;12.53;;;;;;;7.21;100.00;102508.28;5013322;28;20044;-66
2022/11/13 04:40:40;;;;;;;16.70;11.90;;;;;;;7.19;100.00;102508.38;5024567;28;20076;-65
2022/11/13 04:43:07;;;;;;;15.60;11.75;;;;;;;7.15;100.00;102512.06;5014383;28;20053;-66
2022/11/13 04:45:34;;;;;;;18.85;11.82;;;;;;;7.14;100.00;102515.63;5008961;28;20104;-66
2022/11/13 04:48:00;;;;;;;16.38;11.48;;;;;;;7.13;100.00;102524.38;5022846;28;20476;-66
2022/11/13 04:50:27;;;;;;;13.02;10.57;;;;;;;7.11;100.00;102514.03;5004693;28;20116;-66
2022/11/13 04:52:53;;;;;;;14.88;10.63;;;;;;;7.02;100.00;102513.69;5023055;28;20399;-66
2022/11/13 04:55:20;;;;;;;13.73;10.73;;;;;;;6.97;100.00;102508.69;5017823;28;20640;-66
2022/11/13 04:57:46;;;;;;;15.20;11.52;;;;;;;6.92;100.00;102503.72;5030216;28;20478;-65
2022/11/13 05:00:13;;;;;;;15.65;11.40;;;;;;;6.84;100.00;102507.66;5017702;28;20407;-66
2022/11/13 05:02:39;;;;;;;15.05;11.52;;;;;;;6.81;100.00;102505.22;5018928;28;20095;-66
2022/11/13 05:05:06;;;;;;;14.43;10.43;;;;;;;6.77;100.00;102499.31;5019862;28;20060;-66
2022/11/13 05:07:32;;;;;;;15.20;11.10;;;;;;;6.73;100.00;102498.63;5013238;28;20049;-66
2022/11/13 05:09:59;;;;;;;15.05;11.10;;;;;;;6.71;100.00;102497.88;5023312;28;20802;-65
2022/11/13 05:12:25;;;;;;;16.63;11.48;;;;;;;6.65;100.00;102503.41;5019633;28;20062;-65
2022/11/13 05:14:51;;;;;;;17.02;11.45;;;;;;;6.63;100.00;102486.16;5020588;28;20075;-65
2022/11/13 05:17:18;;;;;;;14.20;11.00;;;;;;;6.58;100.00;102488.16;5032045;28;20602;-65
2022/11/13 05:19:44;;;;;;;13.27;10.77;;;;;;;6.61;100.00;102481.03;5016394;28;20542;-65
2022/11/13 05:22:10;;;;;;;14.65;11.07;;;;;;;6.59;100.00;102488.09;5018299;28;20478;-66
2022/11/13 05:24:37;;;;;;;15.13;10.98;;;;;;;6.62;100.00;102481.84;5010435;28;20049;-66
2022/11/13 05:27:03;;;;;;;15.00;11.70;;;;;;;6.57;100.00;102476.88;5014071;28;20079;-67
2022/11/13 05:29:29;;;;;;;13.63;11.13;;;;;;;6.53;100.00;102483.19;5010881;28;20060;-65
2022/11/13 05:31:56;;;;;;;14.90;11.38;;;;;;;6.49;100.00;102476.44;5010881;28;20107;-65
2022/11/13 05:34:22;;;;;;;15.85;11.55;;;;;;;6.41;100.00;102474.22;5018628;28;20115;-66
2022/11/13 05:36:48;;;;;;;15.77;11.43;;;;;;;6.37;100.00;102477.94;5017969;28;20063;-65
2022/11/13 05:39:15;;;;;;;14.65;11.70;;;;;;;6.33;100.00;102479.84;5023635;28;20104;-65
2022/11/13 05:41:41;;;;;;;15.27;10.70;;;;;;;6.26;100.00;102470.63;5022272;28;20048;-65
2022/11/13 05:44:08;;;;;;;17.77;11.32;;;;;;;6.22;100.00;102465.66;5025392;28;20816;-65
2022/11/13 05:46:34;;;;;;;18.50;11.68;;;;;;;6.16;100.00;102471.19;5014981;28;20053;-66
2022/11/13 05:49:01;;;;;;;15.48;11.45;;;;;;;6.16;100.00;102465.97;5002769;28;20552;-66
2022/11/13 05:51:32;;;;;;;14.60;11.27;;;;;;;6.16;100.00;102465.97;5030254;28;20083;-65
2022/11/13 05:53:59;;;;;;;15.75;11.20;;;;;;;6.15;100.00;102462.50;5011413;28;20460;-65
2022/11/13 05:56:28;;;;;;;14.10;11.07;;;;;;;6.15;100.00;102457.31;5022556;28;20659;-65
2022/11/13 05:58:55;;;;;;;14.05;10.23;;;;;;;6.13;100.00;102453.94;5013561;28;20057;-65
2022/11/13 06:01:31;;;;;;;15.52;10.13;;;;;;;6.16;100.00;102458.16;5022957;28;20053;-65
2022/11/13 06:03:59;;;;;;;15.50;10.93;;;;;;;6.17;100.00;102458.06;5018939;28;20056;-65
2022/11/13 06:06:27;;;;;;;13.75;10.15;;;;;;;6.18;100.00;102458.94;5017339;28;20054;-65
2022/11/13 06:08:55;;;;;;;17.10;9.48;;;;;;;6.14;100.00;102453.03;5028166;28;20551;-65
2022/11/13 06:11:24;;;;;;;14.98;10.40;;;;;;;6.14;100.00;102453.84;5011704;28;20112;-65
2022/11/13 06:13:51;;;;;;;14.52;10.27;;;;;;;6.11;100.00;102450.56;5023931;28;20049;-66
2022/11/13 06:16:27;;;;;;;15.05;10.57;;;;;;;6.11;100.00;102453.16;5015369;28;20054;-66
2022/11/13 06:18:57;;;;;;;13.82;10.65;;;;;;;6.09;100.00;102449.78;5036106;28;20061;-65
2022/11/13 06:21:26;;;;;;;14.55;10.82;;;;;;;6.12;100.00;102455.69;5018086;28;20085;-66
2022/11/13 06:23:52;;;;;;;13.60;9.50;;;;;;;6.14;100.00;102446.03;5017678;28;20050;-65
2022/11/13 06:26:29;;;;;;;15.70;10.98;;;;;;;6.18;100.00;102448.50;5023566;28;20084;-66
2022/11/13 06:28:56;;;;;;;16.27;10.85;;;;;;;6.18;100.00;102443.28;5015561;28;20053;-65
2022/11/13 06:31:28;;;;;;;13.98;10.00;;;;;;;6.23;100.00;102441.28;5018405;28;20100;-65
2022/11/13 06:33:55;;;;;;;14.68;10.65;;;;;;;6.22;100.00;102443.03;5018317;28;20053;-65
2022/11/13 06:36:25;;;;;;;13.52;9.73;;;;;;;6.26;100.00;102441.97;5025052;28;20061;-65
2022/11/13 06:38:51;;;;;;;14.27;9.57;;;;;;;6.23;100.00;102447.31;5022956;28;20483;-65
2022/11/13 06:41:20;;;;;;;15.77;10.80;;;;;;;6.27;100.00;102443.66;5022670;28;20148;-66
2022/11/13 06:43:47;;;;;;;;;;;;;;;6.32;100.00;102444.25;5018689;28;20046;-65
2022/11/13 06:46:16;;;;;;;14.05;9.05;;;;;;;6.28;100.00;102441.91;5011199;28;19929;-65
2022/11/13 06:48:43;;;;;;;13.90;10.20;;;;;;;6.25;100.00;102449.84;5012367;28;20524;-66
2022/11/13 06:51:16;;;;;;;15.32;10.48;;;;;;;6.28;100.00;102444.50;5020377;28;20057;-66
2022/11/13 06:53:42;;;;;;;12.32;9.93;;;;;;;6.28;100.00;102441.91;5040099;28;20417;-66
2022/11/13 06:56:10;;;;;;;13.23;10.05;;;;;;;6.31;100.00;102432.16;5026104;28;20101;-67
2022/11/13 06:58:37;;;;;;;13.25;10.60;;;;;;;6.31;100.00;102442.59;5018343;28;20392;-66
2022/11/13 07:01:11;;;;;;;13.02;10.20;;;;;;;6.30;100.00;102433.06;5022212;28;20394;-66
2022/11/13 07:03:38;;;;;;;14.60;11.00;;;;;;;6.27;100.00;102437.59;5010097;28;20057;-68
2022/11/13 07:06:08;;;;;;;14.73;10.07;;;;;;;6.27;100.00;102441.06;5017686;28;20473;-67
2022/11/13 07:08:35;;;;;;;13.38;10.63;;;;;;;6.27;100.00;102442.81;5009045;28;20046;-67
2022/11/13 07:11:01;;;;;;;15.00;11.23;;;;;;;6.23;100.00;102446.50;5020802;28;20052;-67
2022/11/13 07:13:28;;;;;;;15.45;10.93;;;;;;;6.24;100.00;102443.81;5029515;28;20052;-64
2022/11/13 07:16:00;;;;;;;13.20;10.20;;;;;;;6.26;100.00;102446.34;5024054;28;20466;-65
2022/11/13 07:18:38;;;;;;;12.43;10.23;;;;;;;6.23;100.00;102442.09;5029788;28;20092;-65
2022/11/13 07:21:07;;;;;;;14.75;10.75;;;;;;;6.25;100.00;102445.50;5010368;28;20049;-67
2022/11/13 07:23:35;;;;;;;;;;;;;;;6.26;100.00;102441.97;5027873;28;20140;-65
2022/11/13 07:26:03;;;;;;;15.43;10.38;;;;;;;6.26;100.00;102441.13;5018442;28;20320;-67
2022/11/13 07:28:29;;;;;;;13.00;9.88;;;;;;;6.25;100.00;102444.66;5032763;28;20048;-65
2022/11/13 07:31:00;;;;;;;13.02;9.95;;;;;;;6.27;100.00;102440.19;5033470;28;20132;-67
2022/11/13 07:33:26;;;;;;;12.95;9.18;;;;;;;6.21;100.00;102437.91;5012652;28;20048;-67
2022/11/13 07:35:54;;;;;;;14.40;10.70;;;;;;;6.24;100.00;102436.00;5017208;28;20049;-67
2022/11/13 07:38:21;;;;;;;16.20;10.55;;;;;;;6.25;100.00;102444.66;5018762;28;20116;-66
2022/11/13 07:40:48;;;;;;;13.38;10.13;;;;;;;6.27;100.00;102432.38;5017787;28;20107;-65
2022/11/13 07:43:14;;;;;;;14.27;10.48;;;;;;;6.28;100.00;102428.88;5014976;28;20088;-66
2022/11/13 07:45:40;;;;;;;13.95;10.57;;;;;;;6.27;100.00;102427.16;5028927;28;20076;-66
2022/11/13 07:48:08;;;;;;;14.20;10.20;;;;;;;6.36;100.00;102428.47;5032532;28;20057;-66
2022/11/13 07:50:36;;;;;;;16.90;10.70;;;;;;;6.37;100.00;102425.78;5015184;28;20061;-66
2022/11/13 07:53:06;;;;;;;15.30;10.83;;;;;;;6.38;100.00;102429.22;5024309;28;20278;-66
2022/11/13 07:55:33;;;;;;;12.30;9.85;;;;;;;6.40;100.00;102430.81;5015738;28;20399;-65
2022/11/13 07:58:01;;;;;;;16.50;10.77;;;;;;;6.42;100.00;102422.94;5016503;28;20050;-66
2022/11/13 08:00:28;;;;;;;14.38;10.75;;;;;;;6.45;100.00;102418.41;5021446;28;20506;-65
2022/11/13 08:02:55;;;;;;;15.32;11.50;;;;;;;6.45;100.00;102423.63;5014557;28;20645;-66
2022/11/13 08:05:22;;;;;;;14.85;11.13;;;;;;;6.47;100.00;102418.34;5026318;28;20549;-65
2022/11/13 08:07:50;;;;;;;14.52;10.95;;;;;;;6.49;100.00;102417.31;5011614;28;20046;-65
2022/11/13 08:10:18;;;;;;;14.43;10.77;;;;;;;6.50;100.00;102419.00;5020902;28;20501;-66
2022/11/13 08:12:45;;;;;;;12.60;10.15;;;;;;;6.54;100.00;102417.91;5014057;28;20459;-66
2022/11/13 08:15:12;;;;;;;14.88;11.50;;;;;;;6.58;100.00;102418.59;5034626;28;20122;-66
2022/11/13 08:17:39;;;;;;;16.02;10.23;;;;;;;6.60;100.00;102413.31;5027008;28;20049;-65
2022/11/13 08:20:07;;;;;;;16.00;10.48;;;;;;;6.68;100.00;102408.50;5011228;28;20058;-66
2022/11/13 08:22:34;;;;;;;15.88;11.35;;;;;;;6.70;100.00;102410.13;5014438;28;20053;-67
2022/11/13 08:25:00;;;;;;;13.85;10.35;;;;;;;6.69;100.00;102399.78;5015121;28;20089;-65
2022/11/13 08:27:26;;;;;;;13.38;10.68;;;;;;;6.76;100.00;102403.72;5024027;28;20118;-67
2022/11/13 08:29:53;;;;;;;14.50;10.23;;;;;;;6.81;100.00;102396.50;5022799;28;20457;-65
2022/11/13 08:32:21;;;;;;;13.30;10.23;;;;;;;6.84;100.00;102396.34;5021597;28;20111;-65
2022/11/13 08:34:47;;;;;;;12.20;9.43;;;;;;;6.88;100.00;102400.47;5032919;28;20061;-66
2022/11/13 08:37:14;;;;;;;16.02;11.07;;;;;;;6.93;100.00;102397.59;5016338;28;20053;-66
2022/11/13 08:39:40;;;;;;;15.70;10.10;;;;;;;6.97;100.00;102404.34;5018522;28;20058;-66
2022/11/13 08:42:06;;;;;;;13.68;10.57;;;;;;;7.01;100.00;102398.00;5012203;28;20108;-68
2022/11/13 08:44:33;;;;;;;14.77;11.40;;;;;;;7.07;100.00;102396.84;5017324;28;20054;-67
2022/11/13 08:46:59;;;;;;;16.35;11.63;;;;;;;7.10;100.00;102387.06;5027038;28;20100;-66
2022/11/13 08:49:25;;;;;;;15.90;10.73;;;;;;;7.16;100.00;102377.22;5014754;28;20057;-66
2022/11/13 08:51:52;;;;;;;13.50;11.02;;;;;;;7.22;100.00;102382.94;5020872;28;20050;-67
2022/11/13 08:54:19;;;;;;;10.55;7.75;;;;;;;7.29;100.00;102380.81;5023222;28;20048;-67
2022/11/13 08:56:47;;;;;;;15.23;11.23;;;;;;;7.37;100.00;102372.53;5014725;28;20572;-70
2022/11/13 08:59:22;;;;;;;13.93;10.95;;;;;;;7.38;100.00;102376.84;5019004;28;20056;-68
2022/11/13 09:01:49;;;;;;;13.55;10.65;;;;;;;7.45;100.00;102375.59;5027435;28;20096;-67
2022/11/13 09:04:16;;;;;;;15.77;10.82;;;;;;;7.47;100.00;102373.72;5021700;28;20041;-67
2022/11/13 09:06:42;;;;;;;13.73;9.55;;;;;;;7.56;100.00;102370.56;5015685;28;20103;-66
2022/11/13 09:09:09;;;;;;;13.88;11.65;;;;;;;7.65;100.00;102363.97;5016052;28;20050;-67
2022/11/13 09:11:35;;;;;;;13.77;9.63;;;;;;;7.73;100.00;102374.81;5011684;28;20061;-67
2022/11/13 09:14:01;;;;;;;12.90;10.60;;;;;;;7.80;100.00;102372.69;5030086;28;20622;-67
2022/11/13 09:16:28;;;;;;;16.08;11.85;;;;;;;7.80;100.00;102372.69;5030983;28;20057;-66
2022/11/13 09:18:54;;;;;;;16.50;11.57;;;;;;;7.86;100.00;102370.56;5020635;28;20053;-66
2022/11/13 09:21:20;;;;;;;14.48;10.88;;;;;;;7.87;100.00;102363.56;5023259;28;20049;-67
2022/11/13 09:23:47;;;;;;;11.80;9.50;;;;;;;7.90;100.00;102360.78;5015901;28;20576;-66
2022/11/13 09:26:13;;;;;;;12.48;9.85;;;;;;;7.99;100.00;102360.19;5026352;28;20399;-66
2022/11/13 09:28:40;;;;;;;12.88;10.65;;;;;;;8.00;100.00;102361.91;5012435;28;20107;-66
2022/11/13 09:31:06;;;;;;;18.08;10.85;;;;;;;8.10;100.00;102356.97;5037781;28;20862;-66
2022/11/13 09:33:33;;;;;;;13.48;10.13;;;;;;;8.16;100.00;102345.28;5020222;28;20046;-66
2022/11/13 09:36:00;;;;;;;18.02;11.90;;;;;;;8.17;100.00;102355.63;5019773;28;20490;-66
2022/11/13 09:38:28;;;;;;;15.15;10.48;;;;;;;8.22;100.00;102353.59;5027923;28;20638;-66
2022/11/13 09:41:02;;;;;;;14.82;11.00;;;;;;;8.28;100.00;102352.38;5007966;28;20164;-66
2022/11/13 09:43:55;;;;;;;16.52;11.50;;;;;;;8.30;100.00;102351.34;5015553;28;20041;-66
2022/11/13 09:46:41;;;;;;;14.02;10.48;;;;;;;8.35;100.00;102342.38;5015262;28;20441;-66
2022/11/13 09:49:20;;;;;;;13.57;10.73;;;;;;;8.38;100.00;102350.88;5021799;28;20053;-67
2022/11/13 09:51:51;;;;;;;12.65;9.13;;;;;;;8.48;100.00;102351.19;5018176;28;20561;-67
2022/11/13 09:54:19;;;;;;;11.00;8.63;;;;;;;8.50;100.00;102350.13;5026006;28;20053;-67
2022/11/13 09:56:56;;;;;;;14.57;11.27;;;;;;;8.58;100.00;102354.91;5027496;28;20053;-67
2022/11/13 09:59:34;;;;;;;13.98;10.48;;;;;;;8.65;100.00;102353.59;5027239;28;20085;-66
2022/11/13 10:02:15;;;;;;;14.73;10.30;;;;;;;8.71;100.00;102357.59;5017179;28;20072;-67
2022/11/13 10:05:09;;;;;;;15.88;11.02;;;;;;;8.78;100.00;102358.91;4999903;28;20487;-67
2022/11/13 10:07:43;;;;;;;11.30;7.45;;;;;;;8.82;100.00;102359.53;5019777;28;20429;-66
2022/11/13 10:10:16;;;;;;;15.15;11.05;;;;;;;8.89;100.00;102356.41;5009542;28;20053;-66
2022/11/13 10:12:45;;;;;;;15.07;10.88;;;;;;;8.96;100.00;102354.28;5012340;28;20050;-66
2022/11/13 10:15:13;;;;;;;17.65;11.68;;;;;;;8.97;100.00;102344.63;5007534;28;20469;-66
2022/11/13 10:17:51;;;;;;;12.73;9.88;;;;;;;9.06;100.00;102352.72;5010539;28;20443;-67
2022/11/13 10:20:33;;;;;;;13.02;8.50;;;;;;;9.18;100.00;102347.66;5008470;28;20045;-66
2022/11/13 10:23:18;;;;;;;9.77;8.10;;;;;;;9.26;100.00;102343.56;5005031;28;20057;-65
2022/11/13 10:25:44;;;;;;;12.18;9.65;;;;;;;9.28;100.00;102325.97;5011920;28;20486;-66
2022/11/13 10:28:22;;;;;;;14.00;8.88;;;;;;;9.47;100.00;102327.41;5006274;28;20490;-66
2022/11/13 10:31:10;;;;;;;13.00;10.25;;;;;;;9.55;100.00;102329.50;5008703;28;20621;-66
2022/11/13 10:33:37;;;;;;;;;;;;;;;9.64;100.00;102331.50;4998073;28;20305;-66
2022/11/13 10:36:13;;;;;;;11.77;7.93;;;;;;;9.72;100.00;102323.94;5006853;28;19925;-66
2022/11/13 10:38:48;;;;;;;13.80;10.40;;;;;;;9.82;100.00;102321.53;5008960;28;20046;-66
2022/11/13 10:41:20;;;;;;;14.13;10.60;;;;;;;9.90;100.00;102322.72;5018977;28;20053;-66
2022/11/13 10:44:08;;;;;;;10.90;8.88;;;;;;;10.05;100.00;102318.16;5008304;28;20124;-66
2022/11/13 10:46:34;;;;;;;10.97;8.90;;;;;;;10.12;100.00;102310.75;5006642;28;20482;-66
2022/11/13 10:49:18;;;;;;;15.82;10.93;;;;;;;10.25;100.00;102314.19;5010190;28;20054;-66
2022/11/13 10:51:56;;;;;;;17.15;9.50;;;;;;;10.39;100.00;102315.88;5011327;28;20723;-66
2022/11/13 10:54:27;;;;;;;13.35;9.43;;;;;;;10.52;100.00;102310.56;5008772;28;20075;-66
2022/11/13 10:57:02;;;;;;;14.48;10.15;;;;;;;10.70;100.00;102311.03;5002936;28;20090;-66
2022/11/13 10:59:40;;;;;;;15.70;9.50;;;;;;;10.81;100.00;102308.47;5011123;28;20395;-67
2022/11/13 11:02:20;;;;;;;15.23;11.07;;;;;;;10.95;100.00;102302.22;4999807;28;20080;-67
2022/11/13 11:04:47;;;;;;;14.65;10.13;;;;;;;11.06;100.00;102290.94;5009804;28;20096;-67
2022/11/13 11:07:19;;;;;;;12.77;10.27;;;;;;;11.19;100.00;102289.06;5009560;28;20046;-67
2022/11/13 11:09:49;;;;;;;13.50;10.63;;;;;;;11.32;100.00;102288.97;5005289;28;20498;-67
2022/11/13 11:12:24;;;;;;;14.57;10.95;;;;;;;11.45;100.00;102291.53;5020201;28;20075;-68
2022/11/13 11:14:59;;;;;;;11.00;8.35;;;;;;;11.54;100.00;102285.56;5011712;28;20107;-66
2022/11/13 11:18:10;;;;;;;14.88;10.52;;;;;;;11.75;100.00;102284.88;5011251;28;20050;-67